Time;durP1;ratioP1;P1;durP2;ratioP2;P2;SDS_P1;SDS_P2;PMS_P1;PMS_P2;Temp;Humidity;BMP_temperature;BMP_pressure;BME280_temperature;BME280_humidity;BME280_pressure;Samples;Min_cycle;Max_cycle;Signal;HPM_P1;HPM_P2
2024/04/08 00:00:40;;;;;;;5.00;3.67;;;18.20;99.90;;;-141.84;51.91;20163.41;5036582;28;20226;-67
2024/04/08 00:03:07;;;;;;;3.90;3.60;;;18.30;99.90;;;-141.84;52.35;20189.84;5039602;28;20228;-67
2024/04/08 00:05:34;;;;;;;6.35;3.95;;;18.30;99.90;;;-141.84;53.42;20130.91;5034477;28;20571;-67
2024/04/08 00:08:03;;;;;;;7.10;3.88;;;18.30;99.90;;;-141.84;53.77;20163.41;5036454;28;20210;-66
2024/04/08 00:10:32;;;;;;;9.80;4.22;;;18.20;99.90;;;-141.84;54.41;20118.69;5040703;28;20212;-68
2024/04/08 00:13:00;;;;;;;4.97;3.42;;;18.10;99.90;;;-141.84;54.76;20118.69;5033926;28;20217;-68
2024/04/08 00:15:26;;;;;;;5.10;3.50;;;18.10;99.90;;;-141.84;54.95;20106.50;5027025;28;20259;-67
2024/04/08 00:17:53;;;;;;;4.88;3.70;;;17.90;99.90;;;-141.84;55.31;20082.13;5042512;28;20728;-67
2024/04/08 00:20:20;;;;;;;5.18;3.65;;;17.90;99.90;;;-141.84;55.05;20071.97;5042931;28;20216;-67
2024/04/08 00:22:53;;;;;;;5.32;3.60;;;17.80;99.90;;;-141.84;55.17;20055.69;5037417;28;20239;-67
2024/04/08 00:25:22;;;;;;;4.97;3.70;;;17.80;99.90;;;-141.84;55.07;20110.56;5038808;28;20228;-68
2024/04/08 00:27:49;;;;;;;5.15;3.65;;;17.80;99.90;;;-141.84;55.05;20061.78;5034303;28;20777;-67
2024/04/08 00:30:16;;;;;;;4.50;3.67;;;17.80;99.90;;;-141.84;55.12;20084.16;5042855;28;20217;-68
2024/04/08 00:32:43;;;;;;;6.70;3.58;;;17.80;99.90;;;-141.84;55.49;20057.72;5028389;28;20228;-70
2024/04/08 00:35:11;;;;;;;6.68;4.10;;;17.80;99.90;;;-141.84;55.80;20057.72;5032829;28;20197;-68
2024/04/08 00:37:38;;;;;;;5.10;3.58;;;17.70;99.90;;;-141.84;56.25;20051.63;5058419;28;20204;-68
2024/04/08 00:40:07;;;;;;;5.65;3.80;;;17.70;99.90;;;-141.84;56.29;20041.47;5032355;28;20716;-70
2024/04/08 00:42:35;;;;;;;6.43;3.60;;;17.70;99.90;;;-141.84;56.63;20080.09;5033478;28;20221;-68
2024/04/08 00:45:02;;;;;;;5.32;3.22;;;17.70;99.90;;;-141.84;57.38;20025.22;5039467;28;20225;-68
2024/04/08 00:47:29;;;;;;;8.60;4.00;;;17.60;99.90;;;-141.84;57.47;20055.69;5032469;28;20221;-67
2024/04/08 00:49:57;;;;;;;3.80;3.50;;;17.60;99.90;;;-141.84;58.09;20021.16;5034232;28;20224;-68
2024/04/08 00:52:24;;;;;;;4.35;3.88;;;17.50;99.90;;;-141.84;58.44;20013.00;5025359;28;20226;-69
2024/04/08 00:54:52;;;;;;;6.53;3.47;;;17.50;99.90;;;-141.84;58.87;20031.31;5028833;28;20739;-69
2024/04/08 00:57:19;;;;;;;5.40;3.28;;;17.50;99.90;;;-141.84;59.46;20051.63;5032667;28;20229;-68
2024/04/08 00:59:49;;;;;;;4.90;3.78;;;17.50;99.90;;;-141.84;59.87;19988.63;5037620;28;20229;-67
2024/04/08 01:02:15;;;;;;;5.32;3.75;;;17.40;99.90;;;-141.84;60.23;19996.75;5032336;28;20205;-68
2024/04/08 01:04:43;;;;;;;5.15;3.67;;;17.30;99.90;;;-141.84;60.57;20049.59;5034025;28;20208;-68
2024/04/08 01:07:10;;;;;;;5.32;4.03;;;17.30;99.90;;;-141.84;60.61;20004.88;5031149;28;20225;-60
2024/04/08 01:09:37;;;;;;;4.88;3.88;;;17.20;99.90;;;-141.84;60.77;20004.88;5032102;28;20225;-60
2024/04/08 01:12:05;;;;;;;4.53;3.70;;;17.20;99.90;;;-141.84;60.70;19982.53;5035581;28;20731;-61
2024/04/08 01:14:38;;;;;;;5.82;3.67;;;17.20;99.90;;;-141.84;61.15;19970.34;5032108;28;20597;-60
2024/04/08 01:17:07;;;;;;;4.80;3.88;;;17.10;99.90;;;-141.84;62.03;19988.63;5032130;28;20208;-61
2024/04/08 01:21:12;;;;;;;5.45;3.75;;;17.00;99.90;;;-141.84;61.05;19986.59;5526651;25;20681;-60
2024/04/08 01:23:43;;;;;;;5.20;3.88;;;16.90;99.90;;;-141.84;62.03;19956.09;5503384;26;20732;-60
2024/04/08 01:26:14;;;;;;;5.50;4.10;;;16.90;99.90;;;-141.84;61.63;19929.69;5466993;26;20285;-60
2024/04/08 01:28:42;;;;;;;8.20;3.95;;;16.90;99.90;;;-141.84;62.60;19941.88;5467212;26;20348;-60
2024/04/08 01:31:15;;;;;;;4.45;3.75;;;16.80;99.90;;;-141.84;63.50;19939.84;5452120;26;20269;-68
2024/04/08 01:33:43;;;;;;;6.10;3.97;;;16.70;99.90;;;-141.84;64.27;19972.38;5466279;26;20736;-67
2024/04/08 01:36:15;;;;;;;5.85;4.22;;;16.60;99.90;;;-141.84;64.79;19980.50;5466645;26;20249;-69
2024/04/08 01:38:45;;;;;;;6.93;4.22;;;16.50;99.90;;;-141.84;65.44;19988.63;5466527;26;20850;-68
2024/04/08 01:41:20;;;;;;;4.38;3.95;;;16.50;99.90;;;-141.84;65.59;19988.63;5467288;26;20272;-67
2024/04/08 01:43:47;;;;;;;5.07;3.78;;;16.40;99.90;;;-141.84;65.19;19968.31;5452520;26;20260;-67
2024/04/08 01:46:18;;;;;;;8.40;4.30;;;16.40;99.90;;;-141.84;64.82;19958.13;5466869;26;20586;-69
2024/04/08 01:48:45;;;;;;;7.05;4.40;;;16.30;99.90;;;-141.84;65.60;19962.19;5452365;26;20276;-67
2024/04/08 01:51:15;;;;;;;9.43;4.25;;;16.40;99.90;;;-141.84;65.33;19972.38;5466445;26;20295;-68
2024/04/08 01:53:45;;;;;;;6.28;4.20;;;16.30;99.90;;;-141.84;65.48;19903.25;5467119;26;20249;-67
2024/04/08 01:56:15;;;;;;;4.88;3.80;;;16.30;99.90;;;-141.84;65.33;19939.84;5466133;26;20780;-67
2024/04/08 01:58:43;;;;;;;5.40;4.32;;;16.20;99.90;;;-141.84;65.97;19945.94;5467123;26;20225;-67
2024/04/08 02:01:14;;;;;;;4.85;3.97;;;16.20;99.90;;;-141.84;66.28;19964.25;5466254;26;20354;-67
2024/04/08 02:03:42;;;;;;;5.25;4.20;;;16.20;99.90;;;-141.84;66.25;19972.38;5466558;26;20264;-68
2024/04/08 02:06:13;;;;;;;6.18;4.10;;;16.20;99.90;;;-141.84;65.55;19933.75;5467667;26;20249;-67
2024/04/08 02:08:41;;;;;;;7.78;4.50;;;16.20;99.90;;;-141.84;65.60;19929.69;5465734;26;20292;-68
2024/04/08 02:11:14;;;;;;;4.88;4.35;;;16.20;99.90;;;-141.84;65.42;19911.41;5466159;26;20256;-67
2024/04/08 02:13:44;;;;;;;6.22;4.22;;;16.20;99.90;;;-141.84;65.33;19911.41;5467292;26;20321;-67
2024/04/08 02:16:14;;;;;;;5.07;4.18;;;16.20;99.90;;;-141.84;65.61;19915.47;5465811;26;20349;-68
2024/04/08 02:18:43;;;;;;;5.00;4.13;;;16.10;99.90;;;-141.84;64.77;19872.78;5466450;26;20249;-68
2024/04/08 02:21:17;;;;;;;6.13;4.00;;;16.10;99.90;;;-141.84;63.25;19826.03;5466242;26;20257;-68
2024/04/08 02:23:45;;;;;;;4.43;3.90;;;16.10;99.90;;;-141.84;63.07;19834.16;5465819;26;20371;-68
2024/04/08 02:26:18;;;;;;;4.75;4.00;;;16.20;99.90;;;-141.84;64.41;19882.94;5466184;26;20293;-68
2024/04/08 02:28:46;;;;;;;6.38;4.28;;;16.20;99.90;;;-141.84;64.91;19858.56;5466764;26;20664;-67
2024/04/08 02:31:16;;;;;;;6.28;4.22;;;16.20;99.90;;;-141.84;65.36;19878.88;5456985;26;20300;-68
2024/04/08 02:33:43;;;;;;;5.95;4.40;;;16.10;99.90;;;-141.84;65.74;19923.59;5450513;26;20289;-68
2024/04/08 02:36:16;;;;;;;4.80;4.28;;;16.10;99.90;;;-141.84;66.40;19893.09;5450679;26;20288;-67
2024/04/08 02:38:44;;;;;;;7.88;4.57;;;16.10;99.90;;;-141.84;65.39;19878.88;5450263;26;20258;-67
2024/04/08 02:41:18;;;;;;;4.30;3.90;;;16.10;99.90;;;-141.84;65.56;19899.19;5450394;26;20272;-68
2024/04/08 02:43:45;;;;;;;6.38;4.32;;;16.00;99.90;;;-141.84;65.86;19927.66;5451271;26;20226;-67
2024/04/08 02:46:16;;;;;;;5.28;4.45;;;16.00;99.90;;;-141.84;65.79;19907.31;5450170;26;20297;-67
2024/04/08 02:48:43;;;;;;;6.45;4.78;;;16.10;99.90;;;-141.84;64.22;19870.75;5449971;26;20249;-68
2024/04/08 02:51:17;;;;;;;5.90;4.00;;;16.10;99.90;;;-141.84;63.39;19805.72;5450293;26;20253;-67
2024/04/08 02:53:45;;;;;;;9.10;5.10;;;16.20;99.90;;;-141.84;63.42;19828.06;5446041;26;20253;-68
2024/04/08 02:56:18;;;;;;;5.45;4.40;;;16.20;99.90;;;-141.84;63.24;19854.50;5450006;26;20285;-68
2024/04/08 02:58:46;;;;;;;7.57;4.32;;;16.30;99.90;;;-141.84;63.29;19821.97;5450542;26;20230;-67
2024/04/08 03:01:19;;;;;;;5.78;4.30;;;16.30;99.90;;;-141.84;63.17;19850.41;5449938;26;20271;-68
2024/04/08 03:03:46;;;;;;;7.70;4.63;;;16.30;99.90;;;-141.84;63.50;19846.34;5437053;26;20249;-70
2024/04/08 03:06:18;;;;;;;5.30;4.30;;;16.40;99.90;;;-141.84;63.82;19893.09;5450092;26;20296;-71
2024/04/08 03:08:46;;;;;;;5.90;4.68;;;16.30;99.90;;;-141.84;64.08;19895.13;5450416;26;20767;-68
2024/04/08 03:11:19;;;;;;;5.60;4.40;;;16.30;99.90;;;-141.84;63.92;19887.00;5450475;26;20326;-67
2024/04/08 03:13:48;;;;;;;6.55;4.30;;;16.40;99.90;;;-141.84;64.53;19870.75;5451497;26;20246;-68
2024/04/08 03:16:18;;;;;;;4.90;4.43;;;16.30;99.90;;;-141.84;65.04;19913.44;5450713;26;20257;-68
2024/04/08 03:18:45;;;;;;;5.22;4.72;;;16.30;99.90;;;-141.84;65.59;19884.97;5449952;26;20250;-66
2024/04/08 03:21:16;;;;;;;8.40;4.53;;;16.30;99.90;;;-141.84;65.74;19911.41;5449478;26;20359;-69
2024/04/08 03:23:44;;;;;;;7.20;4.20;;;16.30;99.90;;;-141.84;64.57;19872.78;5449223;26;20342;-67
2024/04/08 03:26:15;;;;;;;7.75;4.47;;;16.30;99.90;;;-141.84;64.86;19848.38;5449711;26;20234;-68
2024/04/08 03:28:45;;;;;;;4.63;4.00;;;16.20;99.90;;;-141.84;65.98;19915.47;5449691;26;20226;-68
2024/04/08 03:31:15;;;;;;;6.35;4.40;;;16.20;99.90;;;-141.84;65.94;19956.09;5449328;26;20323;-67
2024/04/08 03:33:43;;;;;;;6.03;4.57;;;16.20;99.90;;;-141.84;66.38;19931.72;5449636;26;20341;-68
2024/04/08 03:36:16;;;;;;;6.22;4.72;;;16.10;99.90;;;-141.84;66.09;19911.41;5449478;26;20673;-68
2024/04/08 03:38:46;;;;;;;4.85;4.10;;;16.10;99.90;;;-141.84;65.89;19884.97;5449273;26;20623;-68
2024/04/08 03:41:18;;;;;;;5.72;4.60;;;16.10;99.90;;;-141.84;65.90;19913.44;5448146;26;20616;-68
2024/04/08 03:43:51;;;;;;;4.97;4.20;;;16.10;99.90;;;-141.84;65.12;19846.34;5450068;26;20230;-68
2024/04/08 03:46:21;;;;;;;7.43;4.70;;;16.10;99.90;;;-141.84;65.68;19868.72;5449544;26;20354;-67
2024/04/08 03:48:54;;;;;;;6.90;4.45;;;16.10;99.90;;;-141.84;66.02;19917.50;5448494;26;20269;-68
2024/04/08 03:51:22;;;;;;;6.03;4.57;;;16.20;99.90;;;-141.84;65.42;19866.69;5449565;26;20250;-68
2024/04/08 03:53:53;;;;;;;6.78;5.00;;;16.10;99.90;;;-141.84;64.87;19862.63;5449282;26;20296;-67
2024/04/08 03:56:22;;;;;;;7.93;4.70;;;16.10;99.90;;;-141.84;65.53;19884.97;5435856;26;20253;-69
2024/04/08 03:58:54;;;;;;;6.80;4.68;;;16.10;99.90;;;-141.84;65.99;19907.31;5450058;26;20264;-67
2024/04/08 04:01:22;;;;;;;7.22;4.13;;;16.10;99.90;;;-141.84;66.00;19931.72;5448462;26;20752;-67
2024/04/08 04:03:52;;;;;;;7.25;4.65;;;16.10;99.90;;;-141.84;66.07;19903.25;5448692;26;20590;-67
2024/04/08 04:06:21;;;;;;;5.93;4.43;;;16.10;99.90;;;-141.84;66.80;19941.88;5449055;26;20288;-67
2024/04/08 04:08:52;;;;;;;12.13;4.63;;;16.10;99.90;;;-141.84;66.54;19927.66;5448316;26;20250;-68
2024/04/08 04:11:19;;;;;;;6.72;4.47;;;16.10;99.90;;;-141.84;66.62;19923.59;5448643;26;20335;-67
2024/04/08 04:13:50;;;;;;;7.55;5.35;;;16.10;99.90;;;-141.84;67.19;19990.66;5449305;26;20334;-67
2024/04/08 04:16:23;;;;;;;8.60;4.80;;;16.10;99.90;;;-141.84;68.17;20008.94;5434397;26;20257;-67
2024/04/08 04:18:54;;;;;;;9.88;4.75;;;16.00;99.90;;;-141.84;68.12;20002.84;5448147;26;20373;-67
2024/04/08 04:21:22;;;;;;;6.82;4.22;;;16.00;99.90;;;-141.84;66.81;19907.31;5448418;26;20280;-68
2024/04/08 04:23:53;;;;;;;5.70;4.45;;;16.00;99.90;;;-141.84;67.17;19960.16;5448643;26;20806;-67
2024/04/08 04:26:21;;;;;;;6.15;4.60;;;15.90;99.90;;;-141.84;66.19;19844.31;5448832;26;20318;-67
2024/04/08 04:28:52;;;;;;;7.30;4.35;;;15.90;99.90;;;-141.84;66.14;19830.09;5448447;26;20280;-67
2024/04/08 04:31:23;;;;;;;7.28;4.68;;;15.90;99.90;;;-141.84;67.03;19884.97;5448645;26;20365;-67
2024/04/08 04:33:56;;;;;;;4.55;3.92;;;15.80;99.90;;;-141.84;66.67;19864.66;5448247;26;20769;-67
2024/04/08 04:36:24;;;;;;;7.53;4.30;;;15.80;99.90;;;-141.84;66.46;19842.28;5448583;26;20787;-67
2024/04/08 04:38:54;;;;;;;6.65;4.13;;;15.80;99.90;;;-141.84;66.98;19891.06;5448213;26;20266;-67
2024/04/08 04:41:22;;;;;;;7.03;4.28;;;15.70;99.90;;;-141.84;66.78;19887.00;5448351;26;20284;-67
2024/04/08 04:43:52;;;;;;;7.22;4.40;;;15.80;99.90;;;-141.84;67.35;19931.72;5449018;26;20230;-68
2024/04/08 04:46:23;;;;;;;6.13;4.13;;;15.80;99.90;;;-141.84;67.01;19911.41;5448575;26;20741;-68
2024/04/08 04:48:54;;;;;;;7.97;4.00;;;15.80;99.90;;;-141.84;65.93;19848.38;5435200;26;20253;-67
2024/04/08 04:51:24;;;;;;;6.90;4.25;;;15.90;99.90;;;-141.84;65.37;19799.63;5447695;26;20265;-67
2024/04/08 04:53:55;;;;;;;7.13;4.50;;;15.90;99.90;;;-141.84;65.75;19828.06;5447327;26;20342;-67
2024/04/08 04:56:23;;;;;;;6.15;4.40;;;15.90;99.90;;;-141.84;65.82;19819.94;5448930;26;20254;-67
2024/04/08 04:58:54;;;;;;;6.43;4.18;;;16.00;99.90;;;-141.84;65.70;19842.28;5448969;26;20341;-67
2024/04/08 05:01:24;;;;;;;9.30;4.45;;;16.00;99.90;;;-141.84;64.30;19815.88;5385163;26;20258;-67
2024/04/08 05:03:57;;;;;;;6.80;4.47;;;16.00;99.90;;;-141.84;64.04;19815.88;5449200;26;20272;-67
2024/04/08 05:06:24;;;;;;;6.68;4.22;;;16.10;99.90;;;-141.84;62.75;19785.38;5445305;26;20433;-67
2024/04/08 05:08:56;;;;;;;8.20;4.72;;;16.20;99.90;;;-141.84;61.63;19846.34;5434426;26;20258;-67
2024/04/08 05:11:24;;;;;;;8.25;4.78;;;16.40;99.90;;;-141.84;62.45;19807.75;5448845;26;20682;-67
2024/04/08 05:13:57;;;;;;;6.30;4.22;;;16.50;99.90;;;-141.84;62.33;19809.78;5448794;26;20276;-67
2024/04/08 05:16:27;;;;;;;8.35;4.32;;;16.50;99.90;;;-141.84;61.39;19783.34;5449988;26;20230;-67
2024/04/08 05:18:57;;;;;;;5.82;4.13;;;16.60;99.90;;;-141.84;60.05;19789.44;5448232;26;20725;-67
2024/04/08 05:21:24;;;;;;;6.88;3.90;;;16.60;99.90;;;-141.84;59.91;19828.06;5448384;26;20249;-67
2024/04/08 05:23:55;;;;;;;7.65;4.55;;;16.70;99.90;;;-141.84;58.70;19817.91;5448615;26;20296;-67
2024/04/08 05:26:22;;;;;;;8.85;4.00;;;16.80;99.90;;;-141.84;57.41;19854.50;5448648;26;20250;-60
2024/04/08 05:28:53;;;;;;;11.95;4.25;;;16.90;99.90;;;-141.84;56.70;19893.09;5434117;26;20665;-60
2024/04/08 05:31:22;;;;;;;7.30;3.95;;;17.10;99.90;;;-141.84;57.65;19866.69;5448684;26;20855;-60
2024/04/08 05:33:55;;;;;;;7.05;4.15;;;17.10;99.90;;;-141.84;57.52;19862.63;5447813;26;20284;-61
2024/04/08 05:36:22;;;;;;;6.53;4.28;;;17.20;99.90;;;-141.84;57.93;19874.81;5448546;26;20253;-60
2024/04/08 05:38:52;;;;;;;11.02;4.15;;;17.20;99.90;;;-141.84;56.37;19887.00;5447829;26;20280;-60
2024/04/08 05:41:19;;;;;;;7.95;4.35;;;17.30;99.90;;;-141.84;54.40;19903.25;5446165;26;20269;-61
2024/04/08 05:43:50;;;;;;;9.57;4.18;;;17.40;99.90;;;-141.84;53.84;19937.81;5448133;26;20234;-60
2024/04/08 05:46:18;;;;;;;5.03;3.30;;;17.40;99.90;;;-141.84;54.34;19925.63;5447456;26;20254;-60
2024/04/08 05:48:48;;;;;;;8.52;4.45;;;17.50;99.90;;;-141.84;54.97;19933.75;5447733;26;20250;-60
2024/04/08 05:51:19;;;;;;;7.15;4.15;;;17.50;99.90;;;-141.84;55.31;19913.44;5447629;26;20658;-59
2024/04/08 05:53:49;;;;;;;5.38;4.10;;;17.50;99.90;;;-141.84;55.30;19907.31;5439726;26;20296;-59
2024/04/08 05:56:16;;;;;;;9.90;4.65;;;17.60;99.90;;;-141.84;54.57;19954.06;5447222;26;20226;-59
2024/04/08 05:58:46;;;;;;;7.10;4.13;;;17.60;99.90;;;-141.84;54.50;19954.06;5447627;26;20225;-60
2024/04/08 06:01:14;;;;;;;7.85;4.57;;;17.60;99.90;;;-141.84;54.64;19921.56;5446750;26;20296;-60
2024/04/08 06:03:44;;;;;;;8.23;4.57;;;17.70;99.90;;;-141.84;54.67;19939.84;5447291;26;20261;-59
2024/04/08 06:06:19;;;;;;;7.25;4.53;;;17.70;99.90;;;-141.84;54.67;19933.75;5448331;26;20253;-59
2024/04/08 06:08:54;;;;;;;8.35;4.85;;;17.80;99.90;;;-141.84;54.46;19962.19;5450633;26;20261;-60
2024/04/08 06:11:22;;;;;;;9.00;4.63;;;17.80;99.90;;;-141.84;54.74;19929.69;5450386;26;20296;-60
2024/04/08 06:13:52;;;;;;;10.00;4.72;;;17.80;99.90;;;-141.84;54.47;19974.41;5450704;26;20626;-60
2024/04/08 06:16:19;;;;;;;8.70;4.45;;;17.90;99.90;;;-141.84;55.70;19947.97;5451191;26;20250;-60
2024/04/08 06:18:49;;;;;;;7.45;4.40;;;17.80;99.90;;;-141.84;56.05;19968.31;5446081;26;20257;-63
2024/04/08 06:21:20;;;;;;;12.63;5.10;;;17.90;99.90;;;-141.84;56.07;19972.38;5451644;26;20288;-60
2024/04/08 06:23:50;;;;;;;9.63;5.75;;;17.90;99.90;;;-141.84;55.94;19958.13;5440074;26;20250;-61
2024/04/08 06:26:18;;;;;;;8.32;5.68;;;18.00;99.90;;;-141.84;55.54;19976.44;5451148;26;20648;-61
2024/04/08 06:28:48;;;;;;;10.30;5.20;;;18.10;99.90;;;-141.84;55.77;20013.00;5437921;26;20736;-59
2024/04/08 06:31:15;;;;;;;8.57;5.60;;;18.10;99.90;;;-141.84;55.56;19970.34;5450628;26;20327;-60
2024/04/08 06:33:45;;;;;;;12.32;5.70;;;18.20;99.90;;;-141.84;55.59;20045.53;5450894;26;20296;-60
2024/04/08 06:36:13;;;;;;;8.63;5.68;;;18.20;99.90;;;-141.84;55.60;20017.09;5452275;26;20288;-60
2024/04/08 06:38:46;;;;;;;10.05;5.88;;;18.30;99.90;;;-141.84;55.97;20019.13;5450133;26;20353;-60
2024/04/08 06:41:18;;;;;;;10.15;5.95;;;18.30;99.90;;;-141.84;55.58;20049.59;5450100;26;20716;-60
2024/04/08 06:43:49;;;;;;;11.95;6.30;;;18.40;99.90;;;-141.84;54.64;20090.25;5450975;26;20230;-60
2024/04/08 06:46:16;;;;;;;10.32;5.57;;;18.50;99.90;;;-141.84;54.86;20043.50;5450428;26;20253;-60
2024/04/08 06:48:46;;;;;;;7.95;6.15;;;18.50;99.90;;;-141.84;55.17;20076.03;5450451;26;20300;-61
2024/04/08 06:51:13;;;;;;;13.00;6.22;;;18.60;99.90;;;-141.84;55.64;20057.72;5450217;26;20261;-60
2024/04/08 06:53:46;;;;;;;9.10;6.80;;;18.50;99.90;;;-141.84;56.19;20023.19;5449707;26;20249;-59
2024/04/08 06:56:14;;;;;;;11.15;6.38;;;18.50;99.90;;;-141.84;57.05;20023.19;5437186;26;20327;-60
2024/04/08 06:58:44;;;;;;;9.68;6.50;;;18.40;99.90;;;-141.84;57.24;19980.50;5450180;26;20226;-60
2024/04/08 07:01:11;;;;;;;9.63;6.70;;;18.30;99.90;;;-141.84;57.82;20008.94;5447893;26;20241;-60
2024/04/08 07:03:41;;;;;;;7.10;5.75;;;18.20;99.90;;;-141.84;58.65;19982.53;5450265;26;20288;-60
2024/04/08 07:06:09;;;;;;;10.40;7.07;;;18.10;99.90;;;-141.84;59.10;19974.41;5452304;26;20292;-60
2024/04/08 07:08:39;;;;;;;9.20;6.53;;;18.10;99.90;;;-141.84;59.23;19980.50;5450481;26;20284;-60
2024/04/08 07:11:09;;;;;;;7.90;6.60;;;18.00;99.90;;;-141.84;58.23;20029.28;5450398;26;20272;-61
2024/04/08 07:13:40;;;;;;;9.77;7.32;;;18.20;99.90;;;-141.84;57.88;20021.16;5452090;26;20284;-61
2024/04/08 07:16:07;;;;;;;10.00;6.75;;;18.30;99.90;;;-141.84;57.85;20023.19;5436424;26;20402;-62
2024/04/08 07:18:37;;;;;;;9.23;6.30;;;18.30;99.90;;;-141.84;57.56;20049.59;5451534;26;20300;-61
2024/04/08 07:21:05;;;;;;;10.55;6.63;;;18.30;99.90;;;-141.84;57.83;20037.41;5451310;26;20289;-60
2024/04/08 07:23:36;;;;;;;9.35;6.57;;;18.40;99.90;;;-141.84;58.04;20023.19;5450646;26;20257;-60
2024/04/08 07:26:04;;;;;;;10.77;6.45;;;18.40;99.90;;;-141.84;57.96;20043.50;5451044;26;20264;-61
2024/04/08 07:28:38;;;;;;;12.60;7.47;;;18.40;99.90;;;-141.84;57.64;20023.19;5451159;26;20226;-60
2024/04/08 07:31:06;;;;;;;10.20;6.47;;;18.40;99.90;;;-141.84;56.62;20041.47;5450696;26;20280;-60
2024/04/08 07:33:36;;;;;;;10.82;6.68;;;18.50;99.90;;;-141.84;57.92;20059.75;5451083;26;20358;-61
2024/04/08 07:36:04;;;;;;;8.80;6.20;;;18.60;99.90;;;-141.84;58.12;20045.53;5451142;26;20763;-59
2024/04/08 07:38:35;;;;;;;9.00;5.75;;;18.60;99.90;;;-141.84;58.04;20031.31;5450829;26;20321;-63
2024/04/08 07:41:28;;;;;;;9.15;6.68;;;18.60;99.90;;;-141.84;57.31;20055.69;5437074;26;20287;-60
2024/04/08 07:43:58;;;;;;;9.60;5.88;;;18.70;99.90;;;-141.84;57.23;20051.63;5452086;26;20271;-59
2024/04/08 07:46:28;;;;;;;10.40;6.55;;;18.80;99.90;;;-141.84;55.94;20057.72;5445443;26;20238;-61
2024/04/08 07:48:55;;;;;;;7.20;5.72;;;18.80;99.90;;;-141.84;56.32;20037.41;5450304;26;20639;-61
2024/04/08 07:51:26;;;;;;;9.25;6.90;;;18.80;99.90;;;-141.84;55.73;20071.97;5450629;26;20729;-60
2024/04/08 07:53:53;;;;;;;7.13;6.13;;;18.80;99.90;;;-141.84;56.70;20029.28;5450073;26;20353;-60
2024/04/08 07:56:23;;;;;;;9.05;6.10;;;18.80;99.90;;;-141.84;56.82;20049.59;5451175;26;20347;-60
2024/04/08 07:58:53;;;;;;;10.35;6.57;;;18.80;99.90;;;-141.84;56.58;20041.47;5451185;26;20283;-60
2024/04/08 08:01:26;;;;;;;9.13;6.57;;;18.80;99.90;;;-141.84;57.17;20029.28;5450157;26;20340;-60
2024/04/08 08:03:53;;;;;;;9.32;5.97;;;18.80;99.90;;;-141.84;57.45;20061.78;5451462;26;20288;-60
2024/04/08 08:06:24;;;;;;;12.75;6.30;;;18.80;99.90;;;-141.84;56.20;20074.00;5450223;26;20284;-60
2024/04/08 08:08:55;;;;;;;10.55;5.47;;;19.00;99.90;;;-141.84;55.78;20118.69;5451528;26;20312;-59
2024/04/08 08:11:25;;;;;;;9.45;5.75;;;19.10;99.90;;;-141.84;54.78;20151.22;5452096;26;20280;-59
2024/04/08 08:13:56;;;;;;;9.38;6.40;;;19.40;99.90;;;-141.84;53.70;20222.38;5450859;26;20579;-61
2024/04/08 08:16:31;;;;;;;9.90;5.82;;;19.70;99.90;;;-141.84;52.01;20267.09;5450417;26;20744;-60
2024/04/08 08:19:04;;;;;;;8.32;5.50;;;19.90;99.90;;;-141.84;51.59;20263.00;5449598;26;20358;-60
2024/04/08 08:21:33;;;;;;;6.75;5.45;;;20.10;99.90;;;-141.84;51.09;20321.97;5450202;26;20265;-60
2024/04/08 08:24:04;;;;;;;8.55;5.55;;;20.40;99.90;;;-141.84;51.23;20321.97;5449819;26;20593;-60
2024/04/08 08:26:35;;;;;;;8.95;6.15;;;20.50;99.90;;;-141.84;49.24;20423.59;5450565;26;20257;-60
2024/04/08 08:29:06;;;;;;;7.50;5.32;;;20.80;99.90;;;-141.84;49.12;20460.19;5449360;26;20291;-60
2024/04/08 08:31:39;;;;;;;13.70;6.03;;;21.10;99.90;;;-141.84;46.66;20571.97;5450302;26;20225;-60
2024/04/08 08:34:06;;;;;;;9.32;5.88;;;21.40;99.90;;;-141.84;46.83;20584.19;5449746;26;20288;-59
2024/04/08 08:36:37;;;;;;;11.30;5.32;;;21.60;99.90;;;-141.84;45.81;20565.88;5450360;26;20254;-60
2024/04/08 08:39:04;;;;;;;10.10;5.00;;;21.70;99.90;;;-141.84;45.71;20594.34;5450061;26;20292;-60
2024/04/08 08:41:40;;;;;;;9.35;5.20;;;21.90;99.90;;;-141.84;45.57;20606.53;5450288;26;20651;-59
2024/04/08 08:44:10;;;;;;;10.38;4.85;;;21.80;99.90;;;-141.84;45.42;20578.09;5449354;26;20828;-60
2024/04/08 08:46:44;;;;;;;8.00;5.10;;;21.80;99.90;;;-141.84;45.63;20551.66;5450546;26;20752;-61
2024/04/08 08:49:16;;;;;;;11.75;4.95;;;21.70;99.90;;;-141.84;45.18;20586.22;5449717;26;20254;-60
2024/04/08 08:51:47;;;;;;;9.30;4.55;;;21.60;99.90;;;-141.84;45.13;20529.28;5449597;26;20296;-60
2024/04/08 08:54:17;;;;;;;8.40;4.50;;;21.50;99.90;;;-141.84;45.41;20529.28;5450131;26;20254;-62
2024/04/08 08:56:47;;;;;;;6.78;3.70;;;21.50;99.90;;;-141.84;45.19;20561.81;5449029;26;20249;-60
2024/04/08 08:59:16;;;;;;;6.60;3.92;;;21.60;99.90;;;-141.84;44.35;20602.47;5450270;26;20225;-60
2024/04/08 09:01:49;;;;;;;10.45;3.45;;;21.50;99.90;;;-141.84;44.24;20588.25;5450368;26;20268;-60
2024/04/08 09:04:17;;;;;;;8.05;4.07;;;21.60;99.90;;;-141.84;44.06;20584.19;5449545;26;20250;-60
2024/04/08 09:06:57;;;;;;;11.98;3.67;;;21.40;99.90;;;-141.84;43.64;20578.09;5449468;26;20250;-60
2024/04/08 09:09:25;;;;;;;9.93;3.60;;;21.40;99.90;;;-141.84;43.33;20624.84;5449654;26;20304;-60
2024/04/08 09:11:56;;;;;;;10.60;3.50;;;21.60;99.90;;;-141.84;42.89;20655.31;5449324;26;20253;-60
2024/04/08 09:14:23;;;;;;;7.65;3.60;;;21.60;99.90;;;-141.84;42.46;20671.59;5449434;26;20771;-61
2024/04/08 09:17:08;;;;;;;10.52;3.60;;;21.70;99.90;;;-141.84;42.61;20655.31;5449414;26;20277;-61
2024/04/08 09:19:35;;;;;;;13.27;4.10;;;21.70;99.90;;;-141.84;42.59;20671.59;5449935;26;20276;-60
2024/04/08 09:22:09;;;;;;;12.68;3.78;;;21.70;99.90;;;-141.84;42.75;20665.50;5449263;26;20261;-60
2024/04/08 09:24:37;;;;;;;8.65;3.58;;;21.80;99.90;;;-141.84;42.85;20659.38;5449268;26;20303;-60
2024/04/08 09:27:07;;;;;;;8.77;3.42;;;21.70;99.90;;;-141.84;42.99;20683.78;5449697;26;20253;-60
2024/04/08 09:29:35;;;;;;;11.02;3.60;;;21.90;99.90;;;-141.84;42.92;20738.66;5448983;26;20313;-60
2024/04/08 09:32:11;;;;;;;7.15;3.28;;;22.10;99.90;;;-141.84;42.56;20740.69;5448713;26;20559;-60
2024/04/08 09:34:41;;;;;;;8.25;3.30;;;22.30;99.90;;;-141.84;42.18;20791.53;5448429;26;20269;-60
2024/04/08 09:37:16;;;;;;;8.57;3.40;;;22.50;99.90;;;-141.84;41.85;20830.16;5449116;26;20640;-60
2024/04/08 09:39:47;;;;;;;7.65;3.72;;;22.70;99.90;;;-141.84;41.75;20864.72;5448802;26;20249;-61
2024/04/08 09:42:20;;;;;;;8.07;3.13;;;23.00;99.90;;;-141.84;40.80;20944.00;5452522;26;20245;-60
2024/04/08 09:44:48;;;;;;;7.25;3.35;;;23.20;99.90;;;-141.84;40.19;21027.34;5452267;26;20336;-60
2024/04/08 09:47:22;;;;;;;12.82;3.58;;;23.50;99.90;;;-141.84;39.74;21027.34;5452130;26;20242;-60
2024/04/08 09:49:53;;;;;;;7.10;3.15;;;23.60;99.90;;;-141.84;39.78;21068.00;5452674;26;20301;-59
2024/04/08 09:52:24;;;;;;;7.10;2.83;;;23.70;99.90;;;-141.84;39.68;21086.31;5452692;26;20257;-60
2024/04/08 09:54:54;;;;;;;12.95;3.60;;;23.80;99.90;;;-141.84;39.76;21051.75;5452105;26;20253;-60
2024/04/08 09:57:29;;;;;;;10.63;3.17;;;23.80;99.90;;;-141.84;39.33;21072.06;5452005;26;20288;-60
2024/04/08 09:59:58;;;;;;;8.25;3.10;;;23.90;99.90;;;-141.84;39.57;21063.94;5452039;26;20345;-60
2024/04/08 10:02:42;;;;;;;11.18;3.08;;;23.80;99.90;;;-141.84;39.27;21053.78;5451848;26;20257;-60
2024/04/08 10:05:14;;;;;;;9.30;3.50;;;23.80;99.90;;;-141.84;39.53;21082.25;5451591;26;20218;-59
2024/04/08 10:07:46;;;;;;;11.68;3.45;;;23.90;99.90;;;-141.84;38.27;21185.91;5452276;26;20299;-59
2024/04/08 10:10:15;;;;;;;9.05;3.15;;;24.00;99.90;;;-141.84;38.94;21139.16;5452725;26;20253;-59
2024/04/08 10:12:45;;;;;;;7.45;3.20;;;24.00;99.90;;;-141.84;38.53;21124.94;5451646;26;20246;-61
2024/04/08 10:15:15;;;;;;;7.65;3.35;;;24.10;99.90;;;-141.84;37.98;21112.72;5452426;26;20865;-63
2024/04/08 10:17:51;;;;;;;14.05;3.30;;;24.00;99.90;;;-141.84;37.32;21163.56;5451074;26;20292;-60